Time;durP1;ratioP1;P1;durP2;ratioP2;P2;SDS_P1;SDS_P2;PMS_P1;PMS_P2;Temp;Humidity;BMP_temperature;BMP_pressure;BME280_temperature;BME280_humidity;BME280_pressure;Samples;Min_cycle;Max_cycle;Signal;HPM_P1;HPM_P2
2022/07/05 00:01:58;;;;;;;2.55;1.52;;;15.20;99.90;;;;;;20910413;28;20041;-48
2022/07/05 00:12:01;;;;;;;1.73;0.77;;;15.20;99.90;;;;;;20909540;28;20099;-46
2022/07/05 00:22:03;;;;;;;2.40;0.85;;;15.20;99.90;;;;;;20918614;28;20036;-55
2022/07/05 00:32:06;;;;;;;3.78;0.70;;;15.50;99.90;;;;;;20973245;28;20028;-47
2022/07/05 00:42:08;;;;;;;5.45;0.90;;;15.50;99.90;;;;;;20989426;28;20402;-55
2022/07/05 00:52:12;;;;;;;2.92;1.20;;;15.50;99.90;;;;;;21005577;28;20033;-47
2022/07/05 01:02:14;;;;;;;2.95;0.93;;;15.40;99.90;;;;;;21004916;28;20045;-47
2022/07/05 01:12:17;;;;;;;1.45;0.60;;;15.40;99.90;;;;;;20970511;28;20538;-48
2022/07/05 01:22:24;;;;;;;2.15;1.20;;;15.50;99.90;;;;;;20969917;28;20427;-49
2022/07/05 01:32:26;;;;;;;1.27;0.60;;;15.30;99.90;;;;;;20969297;28;20036;-46
2022/07/05 01:42:28;;;;;;;0.65;0.47;;;15.30;99.90;;;;;;20957950;28;20078;-48
2022/07/05 01:52:32;;;;;;;1.60;0.60;;;15.30;99.90;;;;;;20921176;28;20166;-54
2022/07/05 02:02:35;;;;;;;0.70;0.50;;;15.30;99.90;;;;;;20968070;28;20122;-47
2022/07/05 02:12:38;;;;;;;0.85;0.50;;;15.30;99.90;;;;;;20967441;28;20064;-49
2022/07/05 02:22:40;;;;;;;1.05;0.30;;;15.30;99.90;;;;;;20966849;28;20090;-47
2022/07/05 02:32:44;;;;;;;1.15;0.40;;;15.00;99.90;;;;;;21000016;28;20562;-50
2022/07/05 02:42:46;;;;;;;4.28;0.40;;;15.10;99.90;;;;;;20999470;28;20409;-55
2022/07/05 02:52:51;;;;;;;1.77;0.50;;;15.20;99.90;;;;;;20971053;28;20067;-51
2022/07/05 03:02:53;;;;;;;3.42;0.40;;;15.40;99.90;;;;;;20981062;28;20040;-46
2022/07/05 03:12:57;;;;;;;1.10;0.40;;;15.40;99.90;;;;;;20963692;28;20029;-47
2022/07/05 03:23:00;;;;;;;0.32;0.30;;;15.40;99.90;;;;;;20962745;28;20032;-48
2022/07/05 03:33:14;;;;;;;0.20;0.20;;;15.40;99.90;;;;;;20978735;28;20511;-49
2022/07/05 03:43:20;;;;;;;2.33;0.30;;;15.60;99.90;;;;;;20974446;28;20498;-47
2022/07/05 03:53:23;;;;;;;1.55;0.20;;;15.90;99.90;;;;;;21010682;28;20062;-48
2022/07/05 04:03:26;;;;;;;1.40;0.20;;;16.40;99.90;;;;;;21008771;28;20029;-55
2022/07/05 04:13:30;;;;;;;1.17;0.30;;;17.00;99.60;;;;;;20975948;28;20028;-51
2022/07/05 04:23:33;;;;;;;1.80;0.40;;;17.20;99.90;;;;;;20974666;28;20029;-48
2022/07/05 04:33:37;;;;;;;1.15;0.63;;;17.50;98.30;;;;;;20974185;28;20041;-48
2022/07/05 04:43:40;;;;;;;2.70;0.30;;;18.10;96.90;;;;;;21039777;28;20077;-51
2022/07/05 04:53:46;;;;;;;0.73;0.28;;;18.20;97.30;;;;;;21039228;28;20036;-55
2022/07/05 05:03:49;;;;;;;1.05;0.30;;;17.80;97.80;;;;;;20913976;28;20360;-55
2022/07/05 05:13:51;;;;;;;0.65;0.20;;;17.70;96.80;;;;;;20904311;28;20091;-51
2022/07/05 05:23:54;;;;;;;1.65;0.45;;;17.80;96.90;;;;;;20903981;28;20095;-47
2022/07/05 05:33:56;;;;;;;1.08;0.20;;;17.50;96.90;;;;;;20906026;28;20368;-50
2022/07/05 05:43:58;;;;;;;1.85;0.30;;;17.50;96.70;;;;;;21052378;28;20485;-56
2022/07/05 05:54:00;;;;;;;0.98;0.20;;;17.80;95.00;;;;;;21051705;28;20032;-56
2022/07/05 06:04:03;;;;;;;1.48;0.35;;;18.50;95.60;;;;;;21050815;28;20374;-52
2022/07/05 06:14:06;;;;;;;0.80;0.20;;;19.20;94.50;;;;;;21050739;28;20032;-57
2022/07/05 06:24:09;;;;;;;2.83;0.35;;;20.50;92.80;;;;;;21022951;28;20145;-58
2022/07/05 06:34:11;;;;;;;2.33;0.25;;;21.00;92.10;;;;;;21016016;28;20048;-58
2022/07/05 06:44:13;;;;;;;0.93;0.32;;;23.60;88.20;;;;;;21016167;28;20062;-55
2022/07/05 06:54:15;;;;;;;1.75;0.20;;;26.50;77.40;;;;;;21015275;28;20048;-56
2022/07/05 07:04:18;;;;;;;0.40;0.30;;;27.30;72.70;;;;;;21059946;28;20077;-56
2022/07/05 07:14:20;;;;;;;3.78;0.50;;;27.10;70.80;;;;;;21063775;28;20044;-55
2022/07/05 07:24:23;;;;;;;1.60;0.50;;;26.20;73.70;;;;;;21062956;28;20109;-58
2022/07/05 07:34:27;;;;;;;2.35;0.20;;;26.10;73.10;;;;;;21061870;28;20070;-58
2022/07/05 07:44:29;;;;;;;0.98;0.25;;;27.30;69.40;;;;;;21047003;28;20036;-58
2022/07/05 07:54:31;;;;;;;2.83;0.50;;;27.60;67.90;;;;;;21010687;28;20032;-56
2022/07/05 08:04:34;;;;;;;1.60;0.75;;;27.10;70.20;;;;;;21009797;28;20066;-55
2022/07/05 08:14:36;;;;;;;1.77;0.50;;;26.70;69.90;;;;;;21008917;28;20044;-56
2022/07/05 08:24:40;;;;;;;0.85;0.45;;;26.70;72.40;;;;;;21039758;28;20081;-56
2022/07/05 08:34:42;;;;;;;0.88;0.50;;;27.00;75.20;;;;;;21056784;28;20040;-57
2022/07/05 08:44:47;;;;;;;0.73;0.70;;;27.90;83.80;;;;;;21056695;28;20382;-57
2022/07/05 08:54:50;;;;;;;0.90;0.65;;;29.20;82.00;;;;;;21055175;28;20477;-57
2022/07/05 09:04:55;;;;;;;2.17;0.63;;;29.80;81.60;;;;;;20971662;28;20032;-57
2022/07/05 09:14:57;;;;;;;5.68;0.90;;;29.20;79.00;;;;;;20971022;28;20036;-57
2022/07/05 09:25:19;;;;;;;2.78;0.88;;;28.80;80.50;;;;;;20969756;28;20041;-60
2022/07/05 09:35:21;;;;;;;2.20;0.90;;;29.00;83.00;;;;;;20980376;28;20101;-57
2022/07/05 09:45:24;;;;;;;2.25;0.88;;;29.30;80.10;;;;;;21030193;28;20032;-62
2022/07/05 09:55:27;;;;;;;0.85;0.60;;;29.20;78.80;;;;;;20974692;28;20040;-61
2022/07/05 10:05:31;;;;;;;1.38;0.60;;;29.20;75.20;;;;;;21049794;28;20443;-57
2022/07/05 10:15:35;;;;;;;1.10;0.43;;;29.20;74.60;;;;;;21050635;28;20085;-61
2022/07/05 10:25:49;;;;;;;0.77;0.60;;;29.30;77.20;;;;;;21026794;28;20036;-58
2022/07/05 10:35:56;;;;;;;1.00;0.90;;;30.00;74.10;;;;;;20981421;28;20043;-57
2022/07/05 10:45:59;;;;;;;2.40;1.20;;;30.10;75.00;;;;;;21049514;28;20384;-59
2022/07/05 10:56:04;;;;;;;2.33;0.90;;;30.20;75.70;;;;;;21065721;28;20032;-56
2022/07/05 11:06:07;;;;;;;3.33;1.07;;;29.20;79.10;;;;;;21048500;28;20040;-59
2022/07/05 11:16:23;;;;;;;4.97;1.33;;;27.90;80.40;;;;;;21057136;28;20032;-57
2022/07/05 11:26:26;;;;;;;1.20;1.08;;;29.00;83.40;;;;;;21062979;28;20040;-60
2022/07/05 11:36:31;;;;;;;3.10;1.40;;;30.10;76.30;;;;;;21062099;28;20052;-60
2022/07/05 11:46:33;;;;;;;4.18;1.73;;;29.90;79.80;;;;;;21029776;28;20091;-57
2022/07/05 11:56:36;;;;;;;2.70;1.48;;;29.00;79.40;;;;;;20977344;28;20028;-58
2022/07/05 12:06:42;;;;;;;1.48;1.27;;;;;;;;;;20984651;22;20045;-59
2022/07/05 12:16:45;;;;;;;2.35;1.58;;;;;;;;;;20975652;28;20093;-62
2022/07/05 12:26:49;;;;;;;3.60;1.80;;;26.40;89.90;;;;;;20957401;28;20040;-60
2022/07/05 12:36:52;;;;;;;3.63;2.15;;;27.50;84.20;;;;;;20974396;28;20044;-59
2022/07/05 12:47:05;;;;;;;4.80;2.03;;;27.60;85.00;;;;;;20973012;28;20040;-59
2022/07/05 13:07:28;;;;;;;6.47;2.13;;;25.80;88.40;;;;;;20971438;28;20045;-59
2022/07/05 13:17:30;;;;;;;2.08;1.88;;;25.40;90.80;;;;;;20971177;28;20059;-58
2022/07/05 13:27:34;;;;;;;4.05;2.20;;;25.10;90.70;;;;;;20970855;28;20029;-59
2022/07/05 13:37:37;;;;;;;2.97;1.70;;;24.90;91.00;;;;;;20952351;28;20044;-59
2022/07/05 13:47:39;;;;;;;2.00;1.80;;;25.10;91.80;;;;;;20968294;28;20389;-59
2022/07/05 13:57:43;;;;;;;4.97;1.67;;;25.40;90.10;;;;;;20967876;28;20032;-53
2022/07/05 14:07:46;;;;;;;2.78;1.45;;;25.00;89.90;;;;;;20967457;28;20429;-58
2022/07/05 14:17:49;;;;;;;2.97;2.05;;;24.00;91.10;;;;;;20967231;28;20563;-58
2022/07/05 14:27:54;;;;;;;3.50;1.83;;;23.10;91.50;;;;;;21009203;28;20480;-58
2022/07/05 14:37:57;;;;;;;4.10;3.20;;;22.70;91.40;;;;;;21050237;28;20472;-58
2022/07/05 14:47:59;;;;;;;2.88;2.20;;;22.60;92.40;;;;;;21053302;28;20036;-58
2022/07/05 14:58:02;;;;;;;2.08;1.30;;;22.50;95.80;;;;;;21038774;28;20033;-60
2022/07/05 15:08:04;;;;;;;3.63;1.80;;;25.80;90.60;;;;;;20980701;28;20049;-60
2022/07/05 15:18:07;;;;;;;2.80;1.77;;;29.10;82.50;;;;;;20980347;28;20344;-59
2022/07/05 15:28:10;;;;;;;3.05;1.90;;;28.70;81.60;;;;;;20979569;28;20036;-59
2022/07/05 15:38:13;;;;;;;1.65;1.50;;;28.50;79.70;;;;;;20978769;28;20063;-59
2022/07/05 15:48:16;;;;;;;3.70;1.70;;;27.30;83.50;;;;;;21023367;28;20040;-60
2022/07/05 15:58:18;;;;;;;4.55;1.88;;;26.30;85.20;;;;;;21060669;28;20035;-60
2022/07/05 16:08:20;;;;;;;5.18;1.80;;;28.60;78.10;;;;;;21060333;28;20052;-60
2022/07/05 16:18:23;;;;;;;3.28;1.60;;;28.30;78.80;;;;;;21059153;28;20085;-60
2022/07/05 16:28:27;;;;;;;2.08;1.60;;;27.20;82.10;;;;;;20994621;28;20071;-59
2022/07/05 16:38:30;;;;;;;4.05;1.88;;;26.80;83.60;;;;;;20973815;28;20029;-59
2022/07/05 16:48:33;;;;;;;4.78;1.83;;;26.30;80.50;;;;;;20956693;28;20036;-59
2022/07/05 16:58:39;;;;;;;4.47;2.10;;;25.00;81.40;;;;;;21003491;28;20039;-58
2022/07/05 17:08:43;;;;;;;2.47;1.90;;;23.60;85.50;;;;;;21054424;28;20470;-59
2022/07/05 17:18:47;;;;;;;4.25;2.03;;;22.60;90.90;;;;;;21054201;28;20036;-57
2022/07/05 17:28:52;;;;;;;4.13;1.60;;;21.90;93.00;;;;;;21054014;28;20438;-58
2022/07/05 17:38:54;;;;;;;3.75;2.13;;;21.50;94.00;;;;;;21052509;28;20043;-58
2022/07/05 17:48:57;;;;;;;3.00;2.00;;;21.10;94.50;;;;;;21000691;28;20094;-58
2022/07/05 17:59:01;;;;;;;3.17;1.90;;;20.90;95.20;;;;;;20967794;28;20106;-58
2022/07/05 18:09:05;;;;;;;1.98;1.85;;;21.00;95.60;;;;;;20967576;28;20090;-51
2022/07/05 18:19:08;;;;;;;2.45;1.75;;;20.80;95.90;;;;;;20967008;28;20066;-57
2022/07/05 18:29:11;;;;;;;2.63;1.73;;;20.30;96.50;;;;;;20981435;28;20055;-57
2022/07/05 18:39:13;;;;;;;3.28;2.00;;;19.80;97.50;;;;;;20983503;28;20040;-57
2022/07/05 18:49:16;;;;;;;2.22;1.90;;;19.20;97.90;;;;;;20982654;28;20033;-56
2022/07/05 18:59:18;;;;;;;2.35;2.13;;;18.70;98.40;;;;;;21018865;28;20061;-57
2022/07/05 19:19:42;;;;;;;2.47;1.35;;;18.20;97.80;;;;;;21063560;28;20036;-56
2022/07/05 19:29:46;;;;;;;4.88;1.45;;;17.90;97.60;;;;;;21063274;28;20036;-49
2022/07/05 19:39:48;;;;;;;3.25;1.20;;;17.70;98.30;;;;;;21062078;28;20113;-56
2022/07/05 19:49:51;;;;;;;2.17;1.40;;;17.70;98.70;;;;;;20985932;28;20044;-56
2022/07/05 19:59:53;;;;;;;2.47;1.73;;;17.80;99.70;;;;;;20977277;28;20093;-51
2022/07/05 20:09:55;;;;;;;3.58;1.45;;;17.80;99.90;;;;;;20976008;28;20048;-57
2022/07/05 20:19:57;;;;;;;2.53;1.58;;;18.00;99.90;;;;;;20975557;28;20028;-56
2022/07/05 20:30:01;;;;;;;2.58;2.08;;;17.90;99.90;;;;;;21051136;28;20842;-56
2022/07/05 20:40:04;;;;;;;5.97;3.17;;;17.60;99.90;;;;;;21058983;28;20097;-56
2022/07/05 20:50:07;;;;;;;4.95;2.92;;;17.40;99.90;;;;;;21056892;28;20035;-57
2022/07/05 21:00:10;;;;;;;7.57;4.30;;;17.20;99.90;;;;;;21011777;28;20546;-57
2022/07/05 21:10:12;;;;;;;3.80;2.70;;;17.50;99.90;;;;;;20971266;28;20045;-57
2022/07/05 21:20:17;;;;;;;4.18;2.78;;;17.90;99.90;;;;;;20971106;28;20492;-57
2022/07/05 21:30:20;;;;;;;6.68;2.90;;;18.00;99.90;;;;;;20970077;28;20033;-57
2022/07/05 21:40:23;;;;;;;6.95;2.72;;;18.10;99.90;;;;;;20969325;28;20041;-49
2022/07/05 21:50:27;;;;;;;2.28;2.08;;;18.10;99.90;;;;;;21033019;28;20048;-58
2022/07/05 22:11:35;;;;;;;1.10;0.77;;;18.40;99.90;;;;;;20960685;28;20045;-51
2022/07/05 22:21:13;;;;;;;3.53;0.93;;;18.50;99.90;;;;;;20970036;28;20425;-57
2022/07/05 22:31:15;;;;;;;2.13;1.20;;;18.00;99.90;;;;;;21051717;28;20036;-57
2022/07/05 22:41:18;;;;;;;2.72;1.00;;;17.20;99.90;;;;;;21049932;28;20031;-49
2022/07/05 22:51:20;;;;;;;5.60;1.70;;;17.10;99.90;;;;;;21049907;28;20446;-49
2022/07/05 23:01:23;;;;;;;9.38;2.20;;;15.50;99.90;;;;;;20995038;28;20033;-52
2022/07/05 23:11:26;;;;;;;3.90;1.98;;;14.50;99.90;;;;;;20972408;28;20048;-55
2022/07/05 23:21:28;;;;;;;4.10;1.90;;;14.00;99.90;;;;;;20996908;28;20032;-54
2022/07/05 23:31:30;;;;;;;3.35;2.25;;;14.10;99.90;;;;;;20979487;28;20032;-55
2022/07/05 23:41:33;;;;;;;2.42;1.88;;;14.00;99.90;;;;;;20979741;28;20432;-55
2022/07/05 23:51:35;;;;;;;3.53;2.90;;;13.70;99.90;;;;;;21051668;28;20249;-46
